In Rescue
 
Open Full Screen Window  High Contrast Mode
Wind Gusting 15 knots
09
March 04, 2021 3:38 AM EST
Weather Information
Wind Direction
  350 °
Wind Speed
  09 kt (10 mph)
Wind Gust
  15 kt (17 mph)
Altimeter
29.80 in
Visibility
10 SM
Temperature
-03° C
27° F
Dewpoint
-08° C
18° F
Humidity
69%
1hr Rain Fall
00.00 in.
24hr Rain Fall
00.00 in.
Sky Condition
Overcast @ 4,300 ft
Broken @ 3,700 ft
Scattered @ 3,100 ft
VFR

METAR K6B0 040838Z AUTO 35009G15KT 10SM SCT031 BKN037 OVC043 M03/M08 A2980 RMK AO2 T10331081

FAA Disclaimer: The data displayed is for advisory purposes only and is not to be used for flight planning or operations.